Time;durP1;ratioP1;P1;durP2;ratioP2;P2;SDS_P1;SDS_P2;PMS_P1;PMS_P2;Temp;Humidity;BMP_temperature;BMP_pressure;BME280_temperature;BME280_humidity;BME280_pressure;Samples;Min_cycle;Max_cycle;Signal;HPM_P1;HPM_P2
2022/10/25 00:00:19;;;;;;;3.70;2.05;;;;;;;-140.73;100.00;60449.34;5011304;28;20032;-71
2022/10/25 00:02:44;;;;;;;6.57;2.80;;;;;;;-140.73;100.00;60449.34;5009542;28;20036;-69
2022/10/25 00:05:13;;;;;;;4.07;2.13;;;;;;;-140.73;100.00;60449.34;5011301;28;20051;-72
2022/10/25 00:07:38;;;;;;;4.67;2.07;;;;;;;-140.73;100.00;60449.34;5010859;28;20528;-73
2022/10/25 00:10:04;;;;;;;4.07;1.40;;;;;;;-140.73;100.00;60449.34;5010605;28;20032;-71
2022/10/25 00:12:30;;;;;;;5.28;2.28;;;;;;;-140.73;100.00;60449.34;5010976;28;20025;-72
2022/10/25 00:15:00;;;;;;;5.82;1.92;;;;;;;-140.73;100.00;60449.34;5010701;28;20024;-71
2022/10/25 00:17:25;;;;;;;2.38;1.10;;;;;;;-140.73;100.00;60449.34;5010204;28;20124;-74
2022/10/25 00:19:50;;;;;;;2.58;1.35;;;;;;;-140.73;100.00;60449.34;5010978;28;20043;-73
2022/10/25 00:22:16;;;;;;;5.30;1.55;;;;;;;-140.73;100.00;60449.34;5010489;28;20391;-71
2022/10/25 00:24:41;;;;;;;7.88;1.25;;;;;;;-140.73;100.00;60449.34;5010049;28;20014;-71
2022/10/25 00:27:06;;;;;;;5.20;1.00;;;;;;;-140.73;100.00;60449.34;5010740;28;20426;-73
2022/10/25 00:29:32;;;;;;;3.88;1.17;;;;;;;-140.73;100.00;60449.34;5010733;28;20083;-72
2022/10/25 00:31:57;;;;;;;1.95;0.93;;;;;;;-140.73;100.00;60449.34;5009690;28;20050;-71
2022/10/25 00:34:23;;;;;;;3.35;1.33;;;;;;;-140.73;100.00;60449.34;5010285;28;20119;-72
2022/10/25 00:36:48;;;;;;;7.32;1.17;;;;;;;-140.73;100.00;60449.34;5010013;28;20060;-72
2022/10/25 00:39:14;;;;;;;3.65;1.27;;;;;;;-140.73;100.00;60449.34;5009835;28;20025;-70
2022/10/25 00:41:39;;;;;;;3.28;0.95;;;;;;;-140.73;100.00;60449.34;5010301;28;20026;-70
2022/10/25 00:44:39;;;;;;;4.05;1.02;;;;;;;-140.73;100.00;60449.34;5009900;28;20113;-74
2022/10/25 00:47:19;;;;;;;5.32;1.02;;;;;;;-140.73;100.00;60449.34;5008929;28;20030;-71
2022/10/25 00:49:52;;;;;;;4.93;1.08;;;;;;;-140.73;100.00;60449.34;5009959;28;20030;-71
2022/10/25 00:52:18;;;;;;;4.00;1.45;;;;;;;-140.73;100.00;60449.34;5009849;28;20024;-70
2022/10/25 00:54:47;;;;;;;4.35;1.08;;;;;;;-140.73;100.00;60449.34;5009503;28;20030;-69
2022/10/25 00:57:45;;;;;;;3.85;1.40;;;;;;;-140.73;100.00;60449.34;5010360;28;20068;-70
2022/10/25 01:00:12;;;;;;;4.65;1.40;;;;;;;-140.73;100.00;60449.34;4996756;28;20029;-71
2022/10/25 01:02:37;;;;;;;1.38;0.65;;;;;;;-140.73;100.00;60449.34;5009631;28;20018;-71
2022/10/25 01:05:03;;;;;;;3.58;0.40;;;;;;;-140.73;100.00;60449.34;5009456;28;20068;-73
2022/10/25 01:07:28;;;;;;;3.75;1.27;;;;;;;-140.73;100.00;60449.34;5010076;28;20095;-72
2022/10/25 01:09:54;;;;;;;4.07;1.08;;;;;;;-140.73;100.00;60449.34;5009813;28;20105;-72
2022/10/25 01:12:19;;;;;;;4.05;1.45;;;;;;;-140.73;100.00;60449.34;5007027;28;20040;-70
2022/10/25 01:14:49;;;;;;;3.70;0.93;;;;;;;-140.73;100.00;60449.34;5009606;28;20025;-70
2022/10/25 01:17:26;;;;;;;6.70;1.17;;;;;;;-140.73;100.00;60449.34;5009308;28;20105;-71
2022/10/25 01:19:54;;;;;;;3.33;0.93;;;;;;;-140.73;100.00;60449.34;5008971;28;20037;-69
2022/10/25 01:22:25;;;;;;;6.07;1.42;;;;;;;-140.73;100.00;60449.34;5010124;28;20033;-69
2022/10/25 01:25:25;;;;;;;9.70;1.38;;;;;;;-140.73;100.00;60449.34;5008934;28;20451;-71
2022/10/25 01:28:11;;;;;;;1.13;0.75;;;;;;;-140.73;100.00;60449.34;5008815;28;20026;-72
2022/10/25 01:31:02;;;;;;;5.78;1.40;;;;;;;-140.73;100.00;60449.34;5008135;28;20417;-69
2022/10/25 01:33:36;;;;;;;2.10;1.23;;;;;;;-140.73;100.00;60449.34;5008795;28;20341;-72
2022/10/25 01:36:29;;;;;;;6.57;1.40;;;;;;;-140.73;100.00;60449.34;4989998;28;20034;-72
2022/10/25 01:39:06;;;;;;;5.65;1.48;;;;;;;-140.73;100.00;60449.34;4981294;28;20038;-71
2022/10/25 01:41:37;;;;;;;5.30;1.67;;;;;;;-140.73;100.00;60449.34;4989653;28;20050;-71
2022/10/25 01:44:05;;;;;;;2.45;0.93;;;;;;;-140.73;100.00;60449.34;4990093;28;20042;-71
2022/10/25 01:46:39;;;;;;;6.10;1.73;;;;;;;-140.73;100.00;60449.34;4990027;28;20033;-72
2022/10/25 01:49:11;;;;;;;8.50;1.67;;;;;;;-140.73;100.00;60449.34;4989838;28;20018;-71
2022/10/25 01:51:37;;;;;;;5.07;1.38;;;;;;;-140.73;100.00;60449.34;4989902;28;20339;-70
2022/10/25 01:54:15;;;;;;;4.70;1.73;;;;;;;-140.73;100.00;60449.34;4989856;28;20153;-70
2022/10/25 01:56:52;;;;;;;3.95;1.45;;;;;;;-140.73;100.00;60449.34;4989579;28;20019;-71
2022/10/25 01:59:26;;;;;;;2.10;1.08;;;;;;;-140.73;100.00;60449.34;4988696;28;20026;-73
2022/10/25 02:01:56;;;;;;;4.30;1.33;;;;;;;-140.73;100.00;60449.34;4989140;28;20450;-70
2022/10/25 02:04:52;;;;;;;5.63;1.80;;;;;;;-140.73;100.00;60449.34;4989918;28;20371;-71
2022/10/25 02:07:20;;;;;;;6.85;1.30;;;;;;;-140.73;100.00;60449.34;4979058;28;20266;-71
2022/10/25 02:10:06;;;;;;;8.75;2.63;;;;;;;-140.73;100.00;60449.34;4976332;28;20459;-72
2022/10/25 02:12:47;;;;;;;2.08;1.17;;;;;;;-140.73;100.00;60449.34;4990006;28;20093;-71
2022/10/25 02:15:21;;;;;;;1.98;0.70;;;;;;;-140.73;100.00;60449.34;4989904;28;20034;-70
2022/10/25 02:17:59;;;;;;;4.97;1.23;;;;;;;-140.73;100.00;60449.34;4989149;28;20030;-73
2022/10/25 02:20:27;;;;;;;6.75;1.42;;;;;;;-140.73;100.00;60449.34;4989539;28;20026;-72
2022/10/25 02:22:54;;;;;;;6.00;1.77;;;;;;;-140.73;100.00;60449.34;4988823;28;20110;-70
2022/10/25 02:25:20;;;;;;;7.85;2.05;;;;;;;-140.73;100.00;60449.34;4989860;28;20371;-70
2022/10/25 02:27:49;;;;;;;3.65;1.30;;;;;;;-140.73;100.00;60449.34;4989461;28;20030;-70
2022/10/25 02:30:14;;;;;;;4.47;1.20;;;;;;;-140.73;100.00;60449.34;4989087;28;20117;-73
2022/10/25 02:32:40;;;;;;;3.20;1.65;;;;;;;-140.73;100.00;60449.34;4987436;28;20109;-71
2022/10/25 02:35:13;;;;;;;5.22;1.52;;;;;;;-140.73;100.00;60449.34;4998645;28;20053;-72
2022/10/25 02:37:38;;;;;;;2.70;1.38;;;;;;;-140.73;100.00;60449.34;5010812;28;20065;-71
2022/10/25 02:40:04;;;;;;;7.53;1.27;;;;;;;-140.73;100.00;60449.34;5010943;28;20040;-70
2022/10/25 02:42:29;;;;;;;4.07;1.42;;;;;;;-140.73;100.00;60449.34;5012960;28;20033;-71
2022/10/25 02:44:56;;;;;;;4.57;0.85;;;;;;;-140.73;100.00;60449.34;5011886;28;20029;-70
2022/10/25 02:47:21;;;;;;;3.33;1.58;;;;;;;-140.73;100.00;60449.34;5012710;28;20104;-70
2022/10/25 02:49:46;;;;;;;6.15;1.50;;;;;;;-140.73;100.00;60449.34;5012793;28;20103;-71
2022/10/25 02:52:12;;;;;;;11.50;1.90;;;;;;;-140.73;100.00;60449.34;5011996;28;20022;-71
2022/10/25 02:54:37;;;;;;;11.70;1.70;;;;;;;-140.73;100.00;60449.34;5012180;28;20033;-71
2022/10/25 02:57:03;;;;;;;4.40;1.52;;;;;;;-140.73;100.00;60449.34;5011824;28;20091;-71
2022/10/25 02:59:28;;;;;;;5.55;1.15;;;;;;;-140.73;100.00;60449.34;5012154;28;20026;-71
2022/10/25 03:01:54;;;;;;;4.72;1.08;;;;;;;-140.73;100.00;60449.34;5011921;28;20362;-71
2022/10/25 03:04:19;;;;;;;10.52;1.83;;;;;;;-140.73;100.00;60449.34;5008079;28;20033;-72
2022/10/25 03:06:44;;;;;;;2.85;0.98;;;;;;;-140.73;100.00;60449.34;5011546;28;20032;-71
2022/10/25 03:09:10;;;;;;;11.90;1.35;;;;;;;-140.73;100.00;60449.34;5012169;28;20135;-71
2022/10/25 03:11:35;;;;;;;8.20;1.67;;;;;;;-140.73;100.00;60449.34;5011799;28;20038;-72
2022/10/25 03:14:01;;;;;;;8.80;1.50;;;;;;;-140.73;100.00;60449.34;4998852;28;20026;-72
2022/10/25 03:16:26;;;;;;;4.57;1.40;;;;;;;-140.73;100.00;60449.34;5012477;28;20033;-71
2022/10/25 03:18:56;;;;;;;5.55;1.10;;;;;;;-140.73;100.00;60449.34;5011147;28;20053;-72
2022/10/25 03:21:22;;;;;;;5.07;1.00;;;;;;;-140.73;100.00;60449.34;5012616;28;20109;-71
2022/10/25 03:23:47;;;;;;;2.67;0.98;;;;;;;-140.73;100.00;60449.34;5011567;28;20128;-74
2022/10/25 03:26:13;;;;;;;5.88;0.93;;;;;;;-140.73;100.00;60449.34;5011395;28;20258;-71
2022/10/25 03:28:38;;;;;;;4.75;1.52;;;;;;;-140.73;100.00;60449.34;5011898;28;20034;-71
2022/10/25 03:31:13;;;;;;;2.55;0.90;;;;;;;-140.73;100.00;60449.34;5011818;28;20018;-73
2022/10/25 03:33:39;;;;;;;3.25;1.30;;;;;;;-140.73;100.00;60449.34;5010354;28;20040;-70
2022/10/25 03:36:05;;;;;;;5.57;1.08;;;;;;;-140.73;100.00;60449.34;5012055;28;20037;-72
2022/10/25 03:38:30;;;;;;;4.28;0.95;;;;;;;-140.73;100.00;60449.34;5011781;28;20018;-71
2022/10/25 03:40:55;;;;;;;6.57;1.25;;;;;;;-140.73;100.00;60449.34;5011290;28;20026;-73
2022/10/25 03:43:21;;;;;;;3.63;1.00;;;;;;;-140.73;100.00;60449.34;5011589;28;20024;-73
2022/10/25 03:45:46;;;;;;;4.00;1.20;;;;;;;-140.73;100.00;60449.34;5011553;28;20021;-71
2022/10/25 03:48:12;;;;;;;7.63;1.48;;;;;;;-140.73;100.00;60449.34;5010092;28;20113;-74
2022/10/25 03:50:37;;;;;;;8.48;2.17;;;;;;;-140.73;100.00;60449.34;5011572;28;20026;-71
2022/10/25 03:53:04;;;;;;;5.32;1.20;;;;;;;-140.73;100.00;60449.34;5011591;28;20489;-73
2022/10/25 03:55:30;;;;;;;5.18;1.33;;;;;;;-140.73;100.00;60449.34;5011033;28;20017;-70
2022/10/25 03:57:55;;;;;;;8.38;1.83;;;;;;;-140.73;100.00;60449.34;5010874;28;20346;-70
2022/10/25 04:00:21;;;;;;;14.00;2.22;;;;;;;-140.73;100.00;60449.34;5011255;28;20018;-72
2022/10/25 04:02:46;;;;;;;8.73;2.42;;;;;;;-140.73;100.00;60449.34;5010147;28;20018;-72
2022/10/25 04:05:11;;;;;;;5.28;1.90;;;;;;;-140.73;100.00;60449.34;5011655;28;20109;-73
2022/10/25 04:07:37;;;;;;;4.07;1.75;;;;;;;-140.73;100.00;60449.34;5010684;28;20044;-72
2022/10/25 04:10:03;;;;;;;5.55;2.10;;;;;;;-140.73;100.00;60449.34;5010943;28;20026;-72
2022/10/25 04:12:29;;;;;;;8.50;2.05;;;;;;;-140.73;100.00;60449.34;5011211;28;20022;-72
2022/10/25 04:14:54;;;;;;;4.80;1.80;;;;;;;-140.73;100.00;60449.34;5010548;28;20402;-70
2022/10/25 04:17:20;;;;;;;3.15;1.45;;;;;;;-140.73;100.00;60449.34;5011344;28;20052;-71
2022/10/25 04:19:45;;;;;;;6.93;2.15;;;;;;;-140.73;100.00;60449.34;5010773;28;20384;-72
2022/10/25 04:22:11;;;;;;;8.30;2.10;;;;;;;-140.73;100.00;60449.34;5009751;28;20153;-70
2022/10/25 04:24:36;;;;;;;3.08;1.58;;;;;;;-140.73;100.00;60449.34;5010824;28;20033;-71
2022/10/25 04:27:02;;;;;;;7.72;2.22;;;;;;;-140.73;100.00;60449.34;5010548;28;20018;-72
2022/10/25 04:29:27;;;;;;;3.83;1.88;;;;;;;-140.73;100.00;60449.34;5010225;28;20040;-71
2022/10/25 04:31:53;;;;;;;3.83;1.98;;;;;;;-140.73;100.00;60449.34;5010393;28;20034;-72
2022/10/25 04:34:18;;;;;;;6.57;2.25;;;;;;;-140.73;100.00;60449.34;5004228;28;20057;-71
2022/10/25 04:36:43;;;;;;;5.20;1.80;;;;;;;-140.73;100.00;60449.34;4990244;28;20105;-70
2022/10/25 04:39:09;;;;;;;5.50;1.88;;;;;;;-140.73;100.00;60449.34;4991684;28;20029;-73
2022/10/25 04:41:35;;;;;;;4.85;1.60;;;;;;;-140.73;100.00;60449.34;4990894;28;20022;-72
2022/10/25 04:44:00;;;;;;;7.75;1.60;;;;;;;-140.73;100.00;60449.34;4990261;28;20026;-70
2022/10/25 04:46:26;;;;;;;4.50;1.20;;;;;;;-140.73;100.00;60449.34;4990585;28;20022;-70
2022/10/25 04:48:51;;;;;;;3.20;1.00;;;;;;;-140.73;100.00;60449.34;4990863;28;20451;-70
2022/10/25 04:51:16;;;;;;;2.95;1.73;;;;;;;-140.73;100.00;60449.34;4990255;28;20026;-69
2022/10/25 04:53:42;;;;;;;7.07;1.33;;;;;;;-140.73;100.00;60449.34;4990642;28;20046;-71
2022/10/25 04:56:10;;;;;;;5.72;1.80;;;;;;;-140.73;100.00;60449.34;4990785;28;20455;-70
2022/10/25 04:58:35;;;;;;;6.60;2.15;;;;;;;-140.73;100.00;60449.34;4989232;28;20546;-71
2022/10/25 05:01:05;;;;;;;3.90;1.15;;;;;;;-140.73;100.00;60449.34;4990686;28;20105;-71
2022/10/25 05:03:32;;;;;;;3.13;1.23;;;;;;;-140.73;100.00;60449.34;4991148;28;20014;-70
2022/10/25 05:06:12;;;;;;;7.03;1.83;;;;;;;-140.73;100.00;60449.34;4989347;28;20218;-71
2022/10/25 05:08:39;;;;;;;3.05;1.73;;;;;;;-140.73;100.00;60449.34;4990612;28;20029;-71
2022/10/25 05:11:06;;;;;;;4.15;1.85;;;;;;;-140.73;100.00;60449.34;4990188;28;20619;-71
2022/10/25 05:13:36;;;;;;;4.68;1.20;;;;;;;-140.73;100.00;60449.34;4990280;28;20026;-70
2022/10/25 05:16:03;;;;;;;5.78;2.10;;;;;;;-140.73;100.00;60449.34;4990490;28;20052;-72
2022/10/25 05:18:33;;;;;;;5.13;1.75;;;;;;;-140.73;100.00;60449.34;4990004;28;20026;-70
2022/10/25 05:21:04;;;;;;;5.95;1.85;;;;;;;-140.73;100.00;60449.34;4989435;28;20371;-72
2022/10/25 05:23:31;;;;;;;7.43;2.15;;;;;;;-140.73;100.00;60449.34;4990149;28;20037;-70
2022/10/25 05:26:18;;;;;;;3.00;1.70;;;;;;;-140.73;100.00;60449.34;4989690;28;20022;-70
2022/10/25 05:28:45;;;;;;;5.30;1.85;;;;;;;-140.73;100.00;60449.34;4990059;28;20149;-70
2022/10/25 05:31:22;;;;;;;5.72;1.80;;;;;;;-140.73;100.00;60449.34;4990356;28;20025;-72
2022/10/25 05:33:51;;;;;;;6.82;2.05;;;;;;;-140.73;100.00;60449.34;4989977;28;20015;-72
2022/10/25 05:36:20;;;;;;;8.60;2.17;;;;;;;-140.73;100.00;60449.34;5009678;28;20469;-72
2022/10/25 05:38:45;;;;;;;4.00;1.95;;;;;;;-140.73;100.00;60449.34;4997967;28;20025;-71
2022/10/25 05:41:13;;;;;;;3.45;2.17;;;;;;;-140.73;100.00;60449.34;5009186;28;20033;-72
2022/10/25 05:43:39;;;;;;;3.67;2.08;;;;;;;-140.73;100.00;60449.34;5009749;28;20282;-73
2022/10/25 05:46:07;;;;;;;7.57;2.30;;;;;;;-140.73;100.00;60449.34;5009364;28;20029;-73
2022/10/25 05:48:34;;;;;;;6.05;2.10;;;;;;;-140.73;100.00;60449.34;5009638;28;20345;-71
2022/10/25 05:51:30;;;;;;;6.97;2.42;;;;;;;-140.73;100.00;60449.34;5009659;28;20454;-72
2022/10/25 05:53:59;;;;;;;7.30;3.28;;;;;;;-140.73;100.00;60449.34;4981536;28;20331;-72
2022/10/25 05:56:27;;;;;;;5.35;2.85;;;;;;;-140.73;100.00;60449.34;5009701;28;20437;-73
2022/10/25 05:58:53;;;;;;;4.45;2.35;;;;;;;-140.73;100.00;60449.34;5009102;28;20362;-70
2022/10/25 06:01:20;;;;;;;4.72;2.83;;;;;;;-140.73;100.00;60449.34;5008720;28;20450;-72
2022/10/25 06:03:47;;;;;;;5.57;3.17;;;;;;;-140.73;100.00;60449.34;5009210;28;20113;-73
2022/10/25 06:06:12;;;;;;;6.97;3.28;;;;;;;-140.73;100.00;60449.34;5009905;28;20493;-72
2022/10/25 06:08:38;;;;;;;7.95;4.00;;;;;;;-140.73;100.00;60449.34;5008691;28;20057;-73
2022/10/25 06:11:07;;;;;;;5.65;3.63;;;;;;;-140.73;100.00;60449.34;5011510;28;20022;-73
2022/10/25 06:13:33;;;;;;;6.63;2.97;;;;;;;-140.73;100.00;60449.34;5013576;28;20347;-73
2022/10/25 06:16:02;;;;;;;8.68;3.60;;;;;;;-140.73;100.00;60449.34;5011944;28;20032;-71
2022/10/25 06:18:27;;;;;;;11.63;4.10;;;;;;;-140.73;100.00;60449.34;5013287;28;20477;-72
2022/10/25 06:20:53;;;;;;;8.70;3.78;;;;;;;-140.73;100.00;60449.34;5013044;28;20030;-72
2022/10/25 06:23:18;;;;;;;5.47;2.92;;;;;;;-140.73;100.00;60449.34;5012742;28;20022;-72
2022/10/25 06:25:43;;;;;;;4.15;3.58;;;;;;;-140.73;100.00;60449.34;5012412;28;20084;-71
2022/10/25 06:28:09;;;;;;;5.60;3.45;;;;;;;-140.73;100.00;60449.34;5013323;28;20032;-72
2022/10/25 06:30:34;;;;;;;5.55;3.47;;;;;;;-140.73;100.00;60449.34;5012560;28;20022;-71
2022/10/25 06:33:00;;;;;;;8.27;3.78;;;;;;;-140.73;100.00;60449.34;5013042;28;20075;-72
2022/10/25 06:35:25;;;;;;;5.75;3.85;;;;;;;-140.73;100.00;60449.34;5013110;28;20140;-71
2022/10/25 06:37:51;;;;;;;8.38;4.25;;;;;;;-140.73;100.00;60449.34;5012591;28;20097;-74
2022/10/25 06:40:17;;;;;;;9.88;4.82;;;;;;;-140.73;100.00;60449.34;5012772;28;20080;-72
2022/10/25 06:42:42;;;;;;;7.22;5.20;;;;;;;-140.73;100.00;60449.34;5011720;28;20138;-73
2022/10/25 06:45:08;;;;;;;6.65;4.47;;;;;;;-140.73;100.00;60449.34;5012921;28;20021;-72
2022/10/25 06:47:33;;;;;;;8.25;4.50;;;;;;;-140.73;100.00;60449.34;5013311;28;20026;-74
2022/10/25 06:49:58;;;;;;;8.65;4.38;;;;;;;-140.73;100.00;60449.34;5011627;28;20091;-73
2022/10/25 06:52:24;;;;;;;10.40;4.30;;;;;;;-140.73;100.00;60449.34;5012937;28;20041;-73
2022/10/25 06:54:49;;;;;;;6.38;3.92;;;;;;;-140.73;100.00;60449.34;5012052;28;20378;-73
2022/10/25 06:57:14;;;;;;;5.03;3.40;;;;;;;-140.73;100.00;60449.34;5011858;28;20450;-71
2022/10/25 06:59:40;;;;;;;8.93;4.28;;;;;;;-140.73;100.00;60449.34;5011716;28;20018;-72
2022/10/25 07:02:05;;;;;;;9.05;3.85;;;;;;;-140.73;100.00;60449.34;5012572;28;20102;-71
2022/10/25 07:04:31;;;;;;;7.95;3.63;;;;;;;-140.73;100.00;60449.34;5011859;28;20485;-73
2022/10/25 07:06:57;;;;;;;4.35;3.05;;;;;;;-140.73;100.00;60449.34;5012507;28;20054;-72
2022/10/25 07:09:24;;;;;;;9.73;3.92;;;;;;;-140.73;100.00;60449.34;5012536;28;20051;-71
2022/10/25 07:11:52;;;;;;;4.57;2.85;;;;;;;-140.73;100.00;60449.34;5011322;28;20025;-72
2022/10/25 07:14:18;;;;;;;5.80;3.13;;;;;;;-140.73;100.00;60449.34;5012373;28;20101;-72
2022/10/25 07:16:43;;;;;;;5.20;3.22;;;;;;;-140.73;100.00;60449.34;5012287;28;20411;-71
2022/10/25 07:19:09;;;;;;;5.38;3.58;;;;;;;-140.73;100.00;60449.34;5011239;28;20026;-73
2022/10/25 07:21:35;;;;;;;5.82;3.97;;;;;;;-140.73;100.00;60449.34;5011126;28;20049;-72
2022/10/25 07:24:01;;;;;;;6.90;3.88;;;;;;;-140.73;100.00;60449.34;5011579;28;20463;-74
2022/10/25 07:26:29;;;;;;;6.30;3.72;;;;;;;-140.73;100.00;60449.34;5011555;28;20101;-71
2022/10/25 07:28:57;;;;;;;4.47;3.10;;;;;;;-140.73;100.00;60449.34;5011845;28;20333;-73
2022/10/25 07:31:25;;;;;;;6.13;2.55;;;;;;;-140.73;100.00;60449.34;5012544;28;20345;-72
2022/10/25 07:33:52;;;;;;;4.60;2.85;;;;;;;-140.73;100.00;60449.34;5008492;28;20326;-72
2022/10/25 07:36:18;;;;;;;5.45;2.60;;;;;;;-140.73;100.00;60449.34;5011899;28;20030;-71
2022/10/25 07:38:44;;;;;;;4.25;2.90;;;;;;;-140.73;100.00;60449.34;5011952;28;20437;-71
2022/10/25 07:41:10;;;;;;;4.55;2.47;;;;;;;-140.73;100.00;60449.34;5011076;28;20381;-71
2022/10/25 07:43:35;;;;;;;6.85;2.67;;;;;;;-140.73;100.00;60449.34;5011940;28;20018;-71
2022/10/25 07:46:01;;;;;;;5.13;2.25;;;;;;;-140.73;100.00;60449.34;5010766;28;20034;-73
2022/10/25 07:48:26;;;;;;;4.53;2.63;;;;;;;-140.73;100.00;60449.34;5011539;28;20033;-73
2022/10/25 07:50:52;;;;;;;7.72;2.75;;;;;;;-140.73;100.00;60449.34;5011221;28;20025;-71
2022/10/25 07:53:17;;;;;;;4.93;2.30;;;;;;;-140.73;100.00;60449.34;5010547;28;20373;-71
2022/10/25 07:55:49;;;;;;;4.50;2.85;;;;;;;-140.73;100.00;60449.34;5011227;28;20029;-72
2022/10/25 07:58:14;;;;;;;5.25;2.92;;;;;;;-140.73;100.00;60449.34;5011299;28;20046;-71
2022/10/25 08:00:40;;;;;;;6.13;3.13;;;;;;;-140.73;100.00;60449.34;4998047;28;20058;-72
2022/10/25 08:03:05;;;;;;;7.72;3.45;;;;;;;-140.73;100.00;60449.34;5009138;28;20076;-73
2022/10/25 08:05:31;;;;;;;7.65;3.15;;;;;;;-140.73;100.00;60449.34;5011866;28;20462;-73
2022/10/25 08:07:56;;;;;;;6.07;4.03;;;;;;;-140.73;100.00;60449.34;5010391;28;20465;-71
2022/10/25 08:10:22;;;;;;;4.80;3.35;;;;;;;-140.73;100.00;60449.34;5011383;28;20113;-72
2022/10/25 08:12:48;;;;;;;6.53;4.13;;;;;;;-140.73;100.00;60449.34;5010972;28;20033;-71
2022/10/25 08:15:14;;;;;;;6.40;3.67;;;;;;;-140.73;100.00;60449.34;5010369;28;20040;-71
2022/10/25 08:17:40;;;;;;;8.82;4.22;;;;;;;-140.73;100.00;60449.34;5010705;28;20014;-73
2022/10/25 08:20:06;;;;;;;7.47;4.68;;;;;;;-140.73;100.00;60449.34;5011009;28;20053;-73
2022/10/25 08:22:31;;;;;;;10.00;3.95;;;;;;;-140.73;100.00;60449.34;5010298;28;20374;-74
2022/10/25 08:24:57;;;;;;;7.68;4.32;;;;;;;-140.73;100.00;60449.34;5010937;28;20021;-70
2022/10/25 08:27:22;;;;;;;7.13;3.58;;;;;;;-140.73;100.00;60449.34;5010535;28;20409;-72
2022/10/25 08:29:48;;;;;;;6.82;4.25;;;;;;;-140.73;100.00;60449.34;5009952;28;20112;-72
2022/10/25 08:32:14;;;;;;;4.60;3.17;;;;;;;-140.73;100.00;60449.34;5009515;28;20543;-73
2022/10/25 08:34:39;;;;;;;5.72;3.90;;;;;;;-140.73;100.00;60449.34;5010088;28;20128;-72
2022/10/25 08:37:05;;;;;;;6.78;4.20;;;;;;;-140.73;100.00;60449.34;5010697;28;20030;-70
2022/10/25 08:39:30;;;;;;;7.30;4.50;;;;;;;-140.73;100.00;60449.34;5010775;28;20041;-73
2022/10/25 08:41:59;;;;;;;5.05;4.05;;;;;;;-140.73;100.00;60449.34;5010298;28;20076;-70
2022/10/25 08:44:36;;;;;;;5.78;4.03;;;;;;;-140.73;100.00;60449.34;5009946;28;20469;-73
2022/10/25 08:47:09;;;;;;;8.32;4.22;;;;;;;-140.73;100.00;60449.34;5010363;28;20030;-71
2022/10/25 08:49:53;;;;;;;8.07;4.20;;;;;;;-140.73;100.00;60449.34;5010208;28;20036;-73
2022/10/25 08:52:43;;;;;;;9.32;4.35;;;;;;;-140.73;100.00;60449.34;4999915;28;20017;-70
2022/10/25 08:55:17;;;;;;;7.88;4.20;;;;;;;-140.73;100.00;60449.34;5010144;28;20105;-73
2022/10/25 08:57:49;;;;;;;6.63;4.28;;;;;;;-140.73;100.00;60449.34;5009355;28;20029;-72
2022/10/25 09:00:19;;;;;;;6.72;4.22;;;;;;;-140.73;100.00;60449.34;5010340;28;20026;-71
2022/10/25 09:02:59;;;;;;;5.95;4.13;;;;;;;-140.73;100.00;60449.34;5009799;28;20033;-73
2022/10/25 09:05:42;;;;;;;;;;;;;;;-140.73;100.00;60449.34;5010160;28;20029;-70
2022/10/25 09:08:45;;;;;;;7.68;4.18;;;;;;;-140.73;100.00;60449.34;5010113;28;19905;-71
2022/10/25 09:11:43;;;;;;;6.63;3.92;;;;;;;-140.73;100.00;60449.34;5005355;28;20073;-71
2022/10/25 09:14:27;;;;;;;6.80;4.10;;;;;;;-140.73;100.00;60449.34;5010175;28;20411;-71
2022/10/25 09:16:59;;;;;;;5.05;3.35;;;;;;;-140.73;100.00;60449.34;5009941;28;20104;-71
2022/10/25 09:19:36;;;;;;;5.88;3.75;;;;;;;-140.73;100.00;60449.34;5009615;28;20472;-73
2022/10/25 09:22:08;;;;;;;8.30;4.07;;;;;;;-140.73;100.00;60449.34;5009725;28;20090;-71
2022/10/25 09:24:53;;;;;;;7.78;3.75;;;;;;;-140.73;100.00;60449.34;5009587;28;20018;-71
2022/10/25 09:27:28;;;;;;;7.93;3.92;;;;;;;-140.73;100.00;60449.34;5009713;28;20010;-71
2022/10/25 09:30:09;;;;;;;9.15;3.85;;;;;;;-140.73;100.00;60449.34;5009496;28;20038;-72
2022/10/25 09:32:46;;;;;;;5.70;3.42;;;;;;;-140.73;100.00;60449.34;5009354;28;20374;-71
2022/10/25 09:35:38;;;;;;;6.32;4.18;;;;;;;-140.73;100.00;60449.34;5009674;28;20114;-70
2022/10/25 09:38:16;;;;;;;5.55;3.17;;;;;;;-140.73;100.00;60449.34;5009706;28;20107;-72
2022/10/25 09:40:55;;;;;;;6.93;3.13;;;;;;;-140.73;100.00;60449.34;5009246;28;20442;-71
2022/10/25 09:43:28;;;;;;;9.52;3.13;;;;;;;-140.73;100.00;60449.34;5009804;28;20021;-72
2022/10/25 09:45:58;;;;;;;6.05;3.15;;;;;;;-140.73;100.00;60449.34;5013111;28;20343;-73
2022/10/25 09:48:29;;;;;;;4.80;3.58;;;;;;;-140.73;100.00;60449.34;5016261;28;20022;-71
2022/10/25 09:51:21;;;;;;;7.85;3.38;;;;;;;-140.73;100.00;60449.34;5016153;28;20032;-74
2022/10/25 09:53:47;;;;;;;4.80;3.20;;;;;;;-140.73;100.00;60449.34;5003994;28;20537;-72
2022/10/25 09:56:13;;;;;;;6.03;3.40;;;;;;;-140.73;100.00;60449.34;5016298;28;20037;-71
2022/10/25 09:58:46;;;;;;;6.43;2.78;;;;;;;-140.73;100.00;60449.34;5016297;28;20013;-71
2022/10/25 10:01:16;;;;;;;5.28;2.97;;;;;;;-140.73;100.00;60449.34;5015799;28;20082;-74
2022/10/25 10:03:42;;;;;;;6.63;3.17;;;;;;;-140.73;100.00;60449.34;5015938;28;20338;-73
2022/10/25 10:06:13;;;;;;;12.35;3.40;;;;;;;-140.73;100.00;60449.34;5016051;28;20028;-71
2022/10/25 10:08:42;;;;;;;9.40;2.72;;;;;;;-140.73;100.00;60449.34;5015357;28;20454;-73
2022/10/25 10:11:14;;;;;;;8.95;2.88;;;;;;;-140.73;100.00;60449.34;5015906;28;20033;-72
2022/10/25 10:13:52;;;;;;;4.40;2.35;;;;;;;-140.73;100.00;60449.34;5015574;28;20374;-71
2022/10/25 10:16:25;;;;;;;4.20;2.35;;;;;;;-140.73;100.00;60449.34;5004712;28;20030;-72
2022/10/25 10:18:51;;;;;;;2.20;1.65;;;;;;;-140.73;100.00;60449.34;5015715;28;20453;-71
2022/10/25 10:21:19;;;;;;;6.95;2.72;;;;;;;-140.73;100.00;60449.34;5015436;28;20182;-72
2022/10/25 10:23:53;;;;;;;3.20;1.88;;;;;;;-140.73;100.00;60449.34;5015340;28;20096;-71
2022/10/25 10:26:43;;;;;;;5.55;2.10;;;;;;;-140.73;100.00;60449.34;5015989;28;20115;-72
2022/10/25 10:29:19;;;;;;;8.50;2.70;;;;;;;-140.73;100.00;60449.34;5003619;28;20026;-71
2022/10/25 10:31:53;;;;;;;3.63;1.75;;;;;;;-140.73;100.00;60449.34;5015489;28;20032;-73
2022/10/25 10:34:37;;;;;;;3.88;2.08;;;;;;;-140.73;100.00;60449.34;5015889;28;20065;-70
2022/10/25 10:37:15;;;;;;;4.10;1.83;;;;;;;-140.73;100.00;60449.34;5015149;28;20022;-72
2022/10/25 10:40:02;;;;;;;5.57;2.10;;;;;;;-140.73;100.00;60449.34;5015415;28;20429;-74
2022/10/25 10:42:36;;;;;;;3.38;1.38;;;;;;;-140.73;100.00;60449.34;5015602;28;20437;-71
2022/10/25 10:45:06;;;;;;;3.88;1.58;;;;;;;-140.73;100.00;60449.34;5015126;28;20029;-73
2022/10/25 10:47:36;;;;;;;6.90;2.28;;;;;;;-140.73;100.00;60449.34;5015956;28;20033;-69
2022/10/25 10:50:21;;;;;;;3.83;1.52;;;;;;;-140.73;100.00;60449.34;5015051;28;20343;-72
2022/10/25 10:52:51;;;;;;;4.60;1.80;;;;;;;-140.73;100.00;60449.34;5015643;28;20024;-70
2022/10/25 10:55:38;;;;;;;7.63;1.80;;;;;;;-140.73;100.00;60449.34;5016172;28;20036;-75
2022/10/25 10:58:15;;;;;;;3.00;1.40;;;;;;;-140.73;100.00;60449.34;5010427;28;20425;-71
2022/10/25 11:00:49;;;;;;;2.83;1.45;;;;;;;-140.73;100.00;60449.34;5012338;28;20022;-71
2022/10/25 11:03:55;;;;;;;3.70;1.42;;;;;;;-140.73;100.00;60449.34;5011666;28;20022;-70
2022/10/25 11:06:25;;;;;;;3.47;1.40;;;;;;;-140.73;100.00;60449.34;5012348;28;20014;-74
2022/10/25 11:09:11;;;;;;;3.72;1.45;;;;;;;-140.73;100.00;60449.34;5012374;28;20052;-71
2022/10/25 11:11:37;;;;;;;3.30;1.50;;;;;;;-140.73;100.00;60449.34;5011591;28;20034;-72
2022/10/25 11:14:19;;;;;;;2.78;1.08;;;;;;;-140.73;100.00;60449.34;5012347;28;20032;-71
2022/10/25 11:17:06;;;;;;;6.32;1.77;;;;;;;-140.73;100.00;60449.34;5012246;28;20026;-71
2022/10/25 11:19:56;;;;;;;5.85;1.67;;;;;;;-140.73;100.00;60449.34;5001359;28;20109;-72
2022/10/25 11:22:39;;;;;;;4.18;1.30;;;;;;;-140.73;100.00;60449.34;5011714;28;20029;-72